< < Back
Terminal Aerodrome Forecast


Current Version              Previous Versions:   1  2  3  4  5  6  7  8  9  

Terminal Aerodrome Forecast

599
FTUS42 KGSP 131130
TAFHKY
TAF
KHKY 131130Z 1312/1412 33009KT P6SM FEW050
     FM131300 33010G16KT P6SM FEW050
     FM131900 33009KT P6SM FEW250
     FM140100 33005KT P6SM FEW250
     FM141100 VRB03KT P6SM BKN110=

Latest METAR

263
SAUS70 KWBC 131500 RRF
MTRHKY
METAR KHKY 131453Z VRB04KT 10SM CLR M02/M15 A3026 RMK AO2 SLP246
T10171150 51032


USA.gov is the U.S. government's official web portal to all federal, state and local government web resources and services.